sensor_id;sensor_type;location;lat;lon;timestamp;P1;durP1;ratioP1;P2;durP2;ratioP2
4210;SDS011;2119;48.828;12.396;2023-02-28T00:02:41;5.40;;;4.90;;
4210;SDS011;2119;48.828;12.396;2023-02-28T00:07:41;6.77;;;5.07;;
4210;SDS011;2119;48.828;12.396;2023-02-28T00:12:47;4.83;;;4.30;;
4210;SDS011;2119;48.828;12.396;2023-02-28T00:17:50;5.13;;;3.90;;
4210;SDS011;2119;48.828;12.396;2023-02-28T00:22:51;7.53;;;4.77;;
4210;SDS011;2119;48.828;12.396;2023-02-28T00:27:52;5.50;;;4.50;;
4210;SDS011;2119;48.828;12.396;2023-02-28T00:32:53;6.30;;;4.70;;
4210;SDS011;2119;48.828;12.396;2023-02-28T00:37:54;8.00;;;4.13;;
4210;SDS011;2119;48.828;12.396;2023-02-28T00:42:55;6.57;;;4.37;;
4210;SDS011;2119;48.828;12.396;2023-02-28T00:47:56;6.93;;;5.15;;
4210;SDS011;2119;48.828;12.396;2023-02-28T00:53:00;8.07;;;5.50;;
4210;SDS011;2119;48.828;12.396;2023-02-28T00:58:01;9.17;;;5.93;;
4210;SDS011;2119;48.828;12.396;2023-02-28T01:03:02;8.40;;;4.90;;
4210;SDS011;2119;48.828;12.396;2023-02-28T01:08:04;11.03;;;6.30;;
4210;SDS011;2119;48.828;12.396;2023-02-28T01:13:04;6.80;;;5.27;;
4210;SDS011;2119;48.828;12.396;2023-02-28T01:18:04;10.93;;;6.95;;
4210;SDS011;2119;48.828;12.396;2023-02-28T01:23:04;6.00;;;4.90;;
4210;SDS011;2119;48.828;12.396;2023-02-28T01:28:06;6.80;;;5.05;;
4210;SDS011;2119;48.828;12.396;2023-02-28T01:33:06;5.70;;;4.97;;
4210;SDS011;2119;48.828;12.396;2023-02-28T01:38:07;5.57;;;4.63;;
4210;SDS011;2119;48.828;12.396;2023-02-28T01:43:31;6.70;;;5.40;;
4210;SDS011;2119;48.828;12.396;2023-02-28T01:48:30;6.00;;;4.53;;
4210;SDS011;2119;48.828;12.396;2023-02-28T01:53:53;6.00;;;5.07;;
4210;SDS011;2119;48.828;12.396;2023-02-28T01:58:54;5.90;;;5.07;;
4210;SDS011;2119;48.828;12.396;2023-02-28T02:03:57;7.07;;;5.10;;
4210;SDS011;2119;48.828;12.396;2023-02-28T02:08:59;10.77;;;5.17;;
4210;SDS011;2119;48.828;12.396;2023-02-28T02:14:07;7.23;;;5.10;;
4210;SDS011;2119;48.828;12.396;2023-02-28T02:45:12;5.57;;;4.53;;
4210;SDS011;2119;48.828;12.396;2023-02-28T02:50:17;8.23;;;5.10;;
4210;SDS011;2119;48.828;12.396;2023-02-28T02:55:19;4.77;;;4.37;;
4210;SDS011;2119;48.828;12.396;2023-02-28T03:00:23;7.93;;;4.97;;
4210;SDS011;2119;48.828;12.396;2023-02-28T03:05:28;6.30;;;4.80;;
4210;SDS011;2119;48.828;12.396;2023-02-28T03:10:37;6.07;;;5.03;;
4210;SDS011;2119;48.828;12.396;2023-02-28T03:21:21;6.77;;;4.77;;
4210;SDS011;2119;48.828;12.396;2023-02-28T03:26:25;5.23;;;4.43;;
4210;SDS011;2119;48.828;12.396;2023-02-28T03:31:30;5.63;;;4.80;;
4210;SDS011;2119;48.828;12.396;2023-02-28T03:36:35;6.67;;;4.97;;
4210;SDS011;2119;48.828;12.396;2023-02-28T03:41:42;5.30;;;4.80;;
4210;SDS011;2119;48.828;12.396;2023-02-28T03:47:49;6.83;;;5.20;;
4210;SDS011;2119;48.828;12.396;2023-02-28T03:52:18;8.27;;;5.47;;
4210;SDS011;2119;48.828;12.396;2023-02-28T04:02:41;5.40;;;4.90;;
4210;SDS011;2119;48.828;12.396;2023-02-28T04:07:42;10.27;;;6.23;;
4210;SDS011;2119;48.828;12.396;2023-02-28T04:12:42;13.30;;;6.60;;
4210;SDS011;2119;48.828;12.396;2023-02-28T04:17:42;8.98;;;6.63;;
4210;SDS011;2119;48.828;12.396;2023-02-28T04:22:43;7.20;;;5.60;;
4210;SDS011;2119;48.828;12.396;2023-02-28T04:27:44;8.50;;;6.20;;
4210;SDS011;2119;48.828;12.396;2023-02-28T04:32:45;10.87;;;6.53;;
4210;SDS011;2119;48.828;12.396;2023-02-28T04:37:51;8.00;;;6.20;;
4210;SDS011;2119;48.828;12.396;2023-02-28T04:42:57;9.57;;;5.73;;
4210;SDS011;2119;48.828;12.396;2023-02-28T04:47:58;9.20;;;6.90;;
4210;SDS011;2119;48.828;12.396;2023-02-28T04:53:00;10.80;;;7.10;;
4210;SDS011;2119;48.828;12.396;2023-02-28T04:58:01;11.40;;;7.33;;
4210;SDS011;2119;48.828;12.396;2023-02-28T05:03:04;10.13;;;7.03;;
4210;SDS011;2119;48.828;12.396;2023-02-28T05:08:06;10.03;;;6.73;;
4210;SDS011;2119;48.828;12.396;2023-02-28T05:13:13;10.63;;;6.93;;
4210;SDS011;2119;48.828;12.396;2023-02-28T05:18:20;10.90;;;7.20;;
4210;SDS011;2119;48.828;12.396;2023-02-28T05:23:21;9.00;;;7.60;;
4210;SDS011;2119;48.828;12.396;2023-02-28T05:28:22;12.87;;;7.30;;
4210;SDS011;2119;48.828;12.396;2023-02-28T05:33:22;11.90;;;7.35;;
4210;SDS011;2119;48.828;12.396;2023-02-28T05:38:24;11.05;;;6.35;;
4210;SDS011;2119;48.828;12.396;2023-02-28T05:43:25;11.63;;;7.70;;
4210;SDS011;2119;48.828;12.396;2023-02-28T05:48:25;10.43;;;7.32;;
4210;SDS011;2119;48.828;12.396;2023-02-28T05:53:26;9.90;;;7.47;;
4210;SDS011;2119;48.828;12.396;2023-02-28T05:58:27;9.83;;;7.60;;
4210;SDS011;2119;48.828;12.396;2023-02-28T06:03:30;9.53;;;6.37;;
4210;SDS011;2119;48.828;12.396;2023-02-28T06:08:31;11.75;;;7.43;;
4210;SDS011;2119;48.828;12.396;2023-02-28T06:13:31;8.95;;;7.13;;
4210;SDS011;2119;48.828;12.396;2023-02-28T06:23:44;15.60;;;8.93;;
4210;SDS011;2119;48.828;12.396;2023-02-28T06:28:44;19.37;;;11.87;;
4210;SDS011;2119;48.828;12.396;2023-02-28T06:33:45;24.80;;;12.97;;
4210;SDS011;2119;48.828;12.396;2023-02-28T06:38:46;20.67;;;11.87;;
4210;SDS011;2119;48.828;12.396;2023-02-28T06:43:51;28.50;;;13.83;;
4210;SDS011;2119;48.828;12.396;2023-02-28T06:48:52;13.10;;;8.20;;
4210;SDS011;2119;48.828;12.396;2023-02-28T06:53:54;12.97;;;8.20;;
4210;SDS011;2119;48.828;12.396;2023-02-28T06:58:54;20.23;;;9.23;;
4210;SDS011;2119;48.828;12.396;2023-02-28T07:03:56;9.50;;;7.60;;
4210;SDS011;2119;48.828;12.396;2023-02-28T07:08:57;10.83;;;7.83;;
4210;SDS011;2119;48.828;12.396;2023-02-28T07:13:58;13.70;;;8.50;;
4210;SDS011;2119;48.828;12.396;2023-02-28T07:18:58;15.07;;;8.40;;
4210;SDS011;2119;48.828;12.396;2023-02-28T07:23:59;13.23;;;9.02;;
4210;SDS011;2119;48.828;12.396;2023-02-28T07:28:59;13.43;;;7.43;;
4210;SDS011;2119;48.828;12.396;2023-02-28T07:33:59;11.20;;;7.70;;
4210;SDS011;2119;48.828;12.396;2023-02-28T07:38:59;13.18;;;7.68;;
4210;SDS011;2119;48.828;12.396;2023-02-28T07:44:00;9.60;;;6.88;;
4210;SDS011;2119;48.828;12.396;2023-02-28T07:49:00;9.85;;;6.85;;
4210;SDS011;2119;48.828;12.396;2023-02-28T07:54:01;13.38;;;8.02;;
4210;SDS011;2119;48.828;12.396;2023-02-28T07:59:02;16.07;;;8.03;;
4210;SDS011;2119;48.828;12.396;2023-02-28T08:04:03;10.90;;;7.10;;
4210;SDS011;2119;48.828;12.396;2023-02-28T08:09:05;11.33;;;7.67;;
4210;SDS011;2119;48.828;12.396;2023-02-28T08:14:05;8.27;;;6.03;;
4210;SDS011;2119;48.828;12.396;2023-02-28T08:19:05;10.07;;;5.37;;
4210;SDS011;2119;48.828;12.396;2023-02-28T08:24:06;9.40;;;6.65;;
4210;SDS011;2119;48.828;12.396;2023-02-28T08:29:06;11.30;;;6.60;;
4210;SDS011;2119;48.828;12.396;2023-02-28T08:34:07;7.97;;;6.30;;
4210;SDS011;2119;48.828;12.396;2023-02-28T08:39:07;6.47;;;5.60;;
4210;SDS011;2119;48.828;12.396;2023-02-28T08:44:09;10.63;;;6.47;;
4210;SDS011;2119;48.828;12.396;2023-02-28T08:49:10;10.33;;;6.60;;
4210;SDS011;2119;48.828;12.396;2023-02-28T08:59:22;16.57;;;6.40;;
4210;SDS011;2119;48.828;12.396;2023-02-28T09:09:30;10.40;;;7.07;;
4210;SDS011;2119;48.828;12.396;2023-02-28T09:14:32;7.97;;;6.70;;
4210;SDS011;2119;48.828;12.396;2023-02-28T09:19:32;7.37;;;6.30;;
4210;SDS011;2119;48.828;12.396;2023-02-28T09:24:36;14.70;;;8.13;;
4210;SDS011;2119;48.828;12.396;2023-02-28T09:29:37;10.20;;;6.70;;
4210;SDS011;2119;48.828;12.396;2023-02-28T09:34:37;8.98;;;6.72;;
4210;SDS011;2119;48.828;12.396;2023-02-28T09:39:38;11.95;;;7.50;;
4210;SDS011;2119;48.828;12.396;2023-02-28T09:44:40;9.10;;;6.67;;
4210;SDS011;2119;48.828;12.396;2023-02-28T09:49:42;9.73;;;6.50;;
4210;SDS011;2119;48.828;12.396;2023-02-28T09:54:43;11.70;;;6.80;;
4210;SDS011;2119;48.828;12.396;2023-02-28T09:59:48;10.70;;;7.03;;
4210;SDS011;2119;48.828;12.396;2023-02-28T10:04:51;7.37;;;6.57;;
4210;SDS011;2119;48.828;12.396;2023-02-28T10:09:55;8.50;;;6.70;;
4210;SDS011;2119;48.828;12.396;2023-02-28T10:14:57;9.17;;;6.03;;
4210;SDS011;2119;48.828;12.396;2023-02-28T10:20:05;7.23;;;6.30;;
4210;SDS011;2119;48.828;12.396;2023-02-28T10:25:17;7.30;;;6.47;;
4210;SDS011;2119;48.828;12.396;2023-02-28T10:30:19;11.37;;;6.53;;
4210;SDS011;2119;48.828;12.396;2023-02-28T10:35:20;8.13;;;6.20;;
4210;SDS011;2119;48.828;12.396;2023-02-28T10:45:21;6.93;;;5.57;;
4210;SDS011;2119;48.828;12.396;2023-02-28T10:55:33;9.00;;;6.33;;
4210;SDS011;2119;48.828;12.396;2023-02-28T11:00:34;10.50;;;6.77;;
4210;SDS011;2119;48.828;12.396;2023-02-28T11:05:35;8.37;;;6.40;;
4210;SDS011;2119;48.828;12.396;2023-02-28T11:10:36;10.73;;;6.80;;
4210;SDS011;2119;48.828;12.396;2023-02-28T11:15:36;10.80;;;6.73;;
4210;SDS011;2119;48.828;12.396;2023-02-28T11:20:49;9.07;;;6.95;;
4210;SDS011;2119;48.828;12.396;2023-02-28T11:25:51;9.60;;;6.53;;
4210;SDS011;2119;48.828;12.396;2023-02-28T11:31:14;9.77;;;6.67;;
4210;SDS011;2119;48.828;12.396;2023-02-28T11:36:27;10.47;;;6.20;;
4210;SDS011;2119;48.828;12.396;2023-02-28T11:46:50;10.93;;;7.17;;
4210;SDS011;2119;48.828;12.396;2023-02-28T12:02:29;10.90;;;6.60;;
4210;SDS011;2119;48.828;12.396;2023-02-28T12:28:02;9.67;;;6.73;;
4210;SDS011;2119;48.828;12.396;2023-02-28T12:33:12;8.50;;;6.40;;
4210;SDS011;2119;48.828;12.396;2023-02-28T12:43:15;10.30;;;6.85;;
4210;SDS011;2119;48.828;12.396;2023-02-28T12:48:25;10.53;;;7.80;;
4210;SDS011;2119;48.828;12.396;2023-02-28T12:53:35;9.70;;;7.50;;
4210;SDS011;2119;48.828;12.396;2023-02-28T12:58:40;8.67;;;7.73;;
4210;SDS011;2119;48.828;12.396;2023-02-28T13:14:13;7.70;;;7.00;;
4210;SDS011;2119;48.828;12.396;2023-02-28T13:19:17;10.40;;;7.60;;
4210;SDS011;2119;48.828;12.396;2023-02-28T13:24:36;8.90;;;6.77;;
4210;SDS011;2119;48.828;12.396;2023-02-28T13:29:37;8.87;;;6.77;;
4210;SDS011;2119;48.828;12.396;2023-02-28T13:50:15;10.93;;;8.57;;
4210;SDS011;2119;48.828;12.396;2023-02-28T13:55:32;11.20;;;8.27;;
4210;SDS011;2119;48.828;12.396;2023-02-28T14:00:59;9.63;;;8.00;;
4210;SDS011;2119;48.828;12.396;2023-02-28T14:06:16;10.70;;;7.70;;
4210;SDS011;2119;48.828;12.396;2023-02-28T14:16:44;11.67;;;8.33;;
4210;SDS011;2119;48.828;12.396;2023-02-28T14:21:49;10.23;;;8.33;;
4210;SDS011;2119;48.828;12.396;2023-02-28T14:37:15;12.93;;;8.63;;
4210;SDS011;2119;48.828;12.396;2023-02-28T14:42:32;13.77;;;9.33;;
4210;SDS011;2119;48.828;12.396;2023-02-28T14:47:34;15.30;;;9.63;;
4210;SDS011;2119;48.828;12.396;2023-02-28T14:52:36;11.33;;;8.87;;
4210;SDS011;2119;48.828;12.396;2023-02-28T14:57:40;10.43;;;8.03;;
4210;SDS011;2119;48.828;12.396;2023-02-28T15:02:45;11.83;;;8.30;;
4210;SDS011;2119;48.828;12.396;2023-02-28T15:13:18;13.33;;;8.87;;
4210;SDS011;2119;48.828;12.396;2023-02-28T15:24:05;13.03;;;8.90;;
4210;SDS011;2119;48.828;12.396;2023-02-28T15:29:17;23.00;;;16.03;;
4210;SDS011;2119;48.828;12.396;2023-02-28T15:34:20;16.63;;;10.57;;
4210;SDS011;2119;48.828;12.396;2023-02-28T15:39:22;13.43;;;9.30;;
4210;SDS011;2119;48.828;12.396;2023-02-28T15:44:26;14.03;;;10.10;;
4210;SDS011;2119;48.828;12.396;2023-02-28T15:49:30;15.67;;;10.20;;
4210;SDS011;2119;48.828;12.396;2023-02-28T15:54:33;17.10;;;10.37;;
4210;SDS011;2119;48.828;12.396;2023-02-28T15:59:35;12.87;;;9.43;;
4210;SDS011;2119;48.828;12.396;2023-02-28T16:04:36;19.43;;;10.47;;
4210;SDS011;2119;48.828;12.396;2023-02-28T16:09:37;17.07;;;10.90;;
4210;SDS011;2119;48.828;12.396;2023-02-28T16:19:51;13.43;;;9.70;;
4210;SDS011;2119;48.828;12.396;2023-02-28T16:24:52;22.30;;;13.53;;
4210;SDS011;2119;48.828;12.396;2023-02-28T16:40:24;24.83;;;14.90;;
4210;SDS011;2119;48.828;12.396;2023-02-28T16:45:26;13.00;;;10.70;;
4210;SDS011;2119;48.828;12.396;2023-02-28T16:50:28;19.10;;;11.30;;
4210;SDS011;2119;48.828;12.396;2023-02-28T16:55:40;14.70;;;11.07;;
4210;SDS011;2119;48.828;12.396;2023-02-28T17:00:40;19.53;;;11.30;;
4210;SDS011;2119;48.828;12.396;2023-02-28T17:05:40;16.00;;;11.50;;
4210;SDS011;2119;48.828;12.396;2023-02-28T17:10:44;14.80;;;10.40;;
4210;SDS011;2119;48.828;12.396;2023-02-28T17:15:45;18.03;;;11.60;;
4210;SDS011;2119;48.828;12.396;2023-02-28T17:20:46;24.03;;;13.60;;
4210;SDS011;2119;48.828;12.396;2023-02-28T17:25:46;20.20;;;11.80;;
4210;SDS011;2119;48.828;12.396;2023-02-28T17:31:03;17.83;;;13.73;;
4210;SDS011;2119;48.828;12.396;2023-02-28T17:36:05;19.23;;;13.47;;
4210;SDS011;2119;48.828;12.396;2023-02-28T17:41:12;20.47;;;13.70;;
4210;SDS011;2119;48.828;12.396;2023-02-28T17:46:19;27.87;;;16.30;;
4210;SDS011;2119;48.828;12.396;2023-02-28T17:51:25;25.73;;;15.60;;
4210;SDS011;2119;48.828;12.396;2023-02-28T17:56:33;25.30;;;15.30;;
4210;SDS011;2119;48.828;12.396;2023-02-28T18:06:57;26.40;;;16.13;;
4210;SDS011;2119;48.828;12.396;2023-02-28T18:12:17;25.50;;;16.00;;
4210;SDS011;2119;48.828;12.396;2023-02-28T18:17:26;20.60;;;13.80;;
4210;SDS011;2119;48.828;12.396;2023-02-28T18:22:27;25.10;;;13.17;;
4210;SDS011;2119;48.828;12.396;2023-02-28T18:27:34;23.75;;;15.40;;
4210;SDS011;2119;48.828;12.396;2023-02-28T18:32:37;22.70;;;14.67;;
4210;SDS011;2119;48.828;12.396;2023-02-28T18:42:42;29.20;;;19.57;;
4210;SDS011;2119;48.828;12.396;2023-02-28T18:47:44;23.70;;;15.97;;
4210;SDS011;2119;48.828;12.396;2023-02-28T18:52:46;27.30;;;17.27;;
4210;SDS011;2119;48.828;12.396;2023-02-28T18:57:46;22.40;;;15.17;;
4210;SDS011;2119;48.828;12.396;2023-02-28T19:02:47;27.30;;;15.33;;
4210;SDS011;2119;48.828;12.396;2023-02-28T19:12:54;27.87;;;15.50;;
4210;SDS011;2119;48.828;12.396;2023-02-28T19:23:21;28.73;;;15.73;;
4210;SDS011;2119;48.828;12.396;2023-02-28T19:28:21;24.80;;;16.58;;
4210;SDS011;2119;48.828;12.396;2023-02-28T19:33:22;24.93;;;16.23;;
4210;SDS011;2119;48.828;12.396;2023-02-28T19:38:26;26.05;;;14.93;;
4210;SDS011;2119;48.828;12.396;2023-02-28T19:43:33;27.90;;;15.43;;
4210;SDS011;2119;48.828;12.396;2023-02-28T19:48:35;26.20;;;16.47;;
4210;SDS011;2119;48.828;12.396;2023-02-28T19:53:38;27.27;;;16.03;;
4210;SDS011;2119;48.828;12.396;2023-02-28T19:58:38;22.80;;;15.03;;
4210;SDS011;2119;48.828;12.396;2023-02-28T20:03:39;28.30;;;15.23;;
4210;SDS011;2119;48.828;12.396;2023-02-28T20:08:43;30.87;;;17.17;;
4210;SDS011;2119;48.828;12.396;2023-02-28T20:13:45;25.90;;;14.97;;
4210;SDS011;2119;48.828;12.396;2023-02-28T20:18:48;28.37;;;16.80;;
4210;SDS011;2119;48.828;12.396;2023-02-28T20:23:51;27.33;;;15.53;;
4210;SDS011;2119;48.828;12.396;2023-02-28T20:28:53;27.40;;;15.47;;
4210;SDS011;2119;48.828;12.396;2023-02-28T20:33:55;22.67;;;14.60;;
4210;SDS011;2119;48.828;12.396;2023-02-28T20:38:55;30.50;;;16.97;;
4210;SDS011;2119;48.828;12.396;2023-02-28T20:43:56;23.70;;;15.40;;
4210;SDS011;2119;48.828;12.396;2023-02-28T20:49:02;25.80;;;15.20;;
4210;SDS011;2119;48.828;12.396;2023-02-28T20:54:02;27.53;;;14.73;;
4210;SDS011;2119;48.828;12.396;2023-02-28T20:59:04;23.02;;;14.23;;
4210;SDS011;2119;48.828;12.396;2023-02-28T21:04:06;27.80;;;17.40;;
4210;SDS011;2119;48.828;12.396;2023-02-28T21:09:13;27.37;;;16.30;;
4210;SDS011;2119;48.828;12.396;2023-02-28T21:14:15;27.83;;;16.17;;
4210;SDS011;2119;48.828;12.396;2023-02-28T21:19:15;25.17;;;15.37;;
4210;SDS011;2119;48.828;12.396;2023-02-28T21:24:17;26.33;;;16.00;;
4210;SDS011;2119;48.828;12.396;2023-02-28T21:29:17;25.03;;;16.13;;
4210;SDS011;2119;48.828;12.396;2023-02-28T21:34:19;31.13;;;17.50;;
4210;SDS011;2119;48.828;12.396;2023-02-28T21:39:22;32.17;;;19.37;;
4210;SDS011;2119;48.828;12.396;2023-02-28T21:44:24;31.80;;;16.13;;
4210;SDS011;2119;48.828;12.396;2023-02-28T21:49:26;29.07;;;17.20;;
4210;SDS011;2119;48.828;12.396;2023-02-28T21:54:29;27.63;;;17.00;;
4210;SDS011;2119;48.828;12.396;2023-02-28T21:59:30;26.30;;;16.33;;
4210;SDS011;2119;48.828;12.396;2023-02-28T22:04:31;27.63;;;16.37;;
4210;SDS011;2119;48.828;12.396;2023-02-28T22:09:34;23.40;;;13.20;;
4210;SDS011;2119;48.828;12.396;2023-02-28T22:14:38;25.60;;;14.87;;
4210;SDS011;2119;48.828;12.396;2023-02-28T22:19:39;28.87;;;15.40;;
4210;SDS011;2119;48.828;12.396;2023-02-28T22:24:40;25.77;;;16.65;;
4210;SDS011;2119;48.828;12.396;2023-02-28T22:29:40;30.20;;;16.63;;
4210;SDS011;2119;48.828;12.396;2023-02-28T22:34:41;25.70;;;16.37;;
4210;SDS011;2119;48.828;12.396;2023-02-28T22:39:42;22.67;;;13.70;;
4210;SDS011;2119;48.828;12.396;2023-02-28T22:44:43;21.30;;;14.10;;
4210;SDS011;2119;48.828;12.396;2023-02-28T22:49:45;25.50;;;14.07;;
4210;SDS011;2119;48.828;12.396;2023-02-28T22:54:49;22.75;;;14.57;;
4210;SDS011;2119;48.828;12.396;2023-02-28T22:59:51;22.10;;;14.43;;
4210;SDS011;2119;48.828;12.396;2023-02-28T23:04:54;26.20;;;14.30;;
4210;SDS011;2119;48.828;12.396;2023-02-28T23:09:54;25.17;;;14.90;;
4210;SDS011;2119;48.828;12.396;2023-02-28T23:14:56;26.83;;;15.07;;
4210;SDS011;2119;48.828;12.396;2023-02-28T23:20:01;25.93;;;14.17;;
4210;SDS011;2119;48.828;12.396;2023-02-28T23:25:03;21.50;;;14.30;;
4210;SDS011;2119;48.828;12.396;2023-02-28T23:30:05;22.40;;;13.60;;
4210;SDS011;2119;48.828;12.396;2023-02-28T23:35:07;27.37;;;14.40;;
4210;SDS011;2119;48.828;12.396;2023-02-28T23:40:09;25.50;;;13.60;;
4210;SDS011;2119;48.828;12.396;2023-02-28T23:45:09;28.17;;;14.33;;
4210;SDS011;2119;48.828;12.396;2023-02-28T23:50:10;24.93;;;14.33;;
4210;SDS011;2119;48.828;12.396;2023-02-28T23:55:10;22.77;;;15.53;;
